KLHZ Airport (Triangle North Executive) Information

FAA: LHZ - ICAO: KLHZ

KLHZ Airport Location

State North Carolina
County Franklin
City Louisburg
KLHZ Airport is 5 miles southwest of Louisburg, NC.
Latitude 36-01-24.0550N
Longitude 078-19-48.9470W
Elevation 368ft

KLHZ Airport METARs

METAR KLHZ 302155Z AUTO 03018G29KT 5SM -RA BKN011 OVC016 15/15 A2967 RMK AO2 P0009
Altimeter 29.67"
Temperature 15.0°C (59.0°F)
Wind 30° at 18KT with gusts to 29KT
Clouds broken at 1,100ft overcast at 1,600ft
Visibility 5.0mi
Time observed: 2022-09-30T21:55:00Z

KLHZ Airport Details

Status Operational
Activation March 1993
Ownership Public
Usage Public
Chart CHARLOTTE
ATC on-site No
Beacon schedule sunset-sunrise
Beacon color clear green

KLHZ Airport Contacts

Owner FRANKLIN COUNTY
Owner address 113 MARKET STREET, LOUISBURG, NC 27549
Owner phone 919-554-1863
Manager STEVE SHIRK
Manager address P.O. BOX 220, LENOIR, NC 28645
Manager phone (828) 919-9158

KLHZ Airport (Triangle North Executive) Radio Frequencies

KLHZ (Airport) Radio Frequencies

UNICOM 123
Common traffic advisory frequency (CTAF) 123